sensor_id;sensor_type;location;lat;lon;timestamp;temperature;humidity
8172;DHT22;4127;47.908;10.850;2022-08-21T00:01:41;15.30;99.90
8172;DHT22;4127;47.908;10.850;2022-08-21T00:04:09;15.30;99.90
8172;DHT22;4127;47.908;10.850;2022-08-21T00:06:40;15.20;99.90
8172;DHT22;4127;47.908;10.850;2022-08-21T00:09:08;15.20;99.90
8172;DHT22;4127;47.908;10.850;2022-08-21T00:11:37;15.20;99.90
8172;DHT22;4127;47.908;10.850;2022-08-21T00:14:05;15.20;99.90
8172;DHT22;4127;47.908;10.850;2022-08-21T00:16:33;15.20;99.90
8172;DHT22;4127;47.908;10.850;2022-08-21T00:19:00;15.10;99.90
8172;DHT22;4127;47.908;10.850;2022-08-21T00:21:27;15.10;99.90
8172;DHT22;4127;47.908;10.850;2022-08-21T00:23:54;15.10;99.90
8172;DHT22;4127;47.908;10.850;2022-08-21T00:26:21;15.10;99.90
8172;DHT22;4127;47.908;10.850;2022-08-21T00:28:47;15.20;99.90
8172;DHT22;4127;47.908;10.850;2022-08-21T00:31:16;15.10;99.90
8172;DHT22;4127;47.908;10.850;2022-08-21T00:33:43;15.20;99.90
8172;DHT22;4127;47.908;10.850;2022-08-21T00:36:11;15.10;99.90
8172;DHT22;4127;47.908;10.850;2022-08-21T00:38:38;15.10;99.90
8172;DHT22;4127;47.908;10.850;2022-08-21T00:41:08;15.10;99.90
8172;DHT22;4127;47.908;10.850;2022-08-21T00:43:55;15.10;99.90
8172;DHT22;4127;47.908;10.850;2022-08-21T00:46:22;15.10;99.90
8172;DHT22;4127;47.908;10.850;2022-08-21T00:48:54;15.10;99.90
8172;DHT22;4127;47.908;10.850;2022-08-21T00:51:51;15.10;99.90
8172;DHT22;4127;47.908;10.850;2022-08-21T00:54:23;15.10;99.90
8172;DHT22;4127;47.908;10.850;2022-08-21T00:56:57;15.00;99.90
8172;DHT22;4127;47.908;10.850;2022-08-21T00:59:28;15.00;99.90
8172;DHT22;4127;47.908;10.850;2022-08-21T01:01:56;15.00;99.90
8172;DHT22;4127;47.908;10.850;2022-08-21T01:04:24;15.00;99.90
8172;DHT22;4127;47.908;10.850;2022-08-21T01:06:50;14.90;99.90
8172;DHT22;4127;47.908;10.850;2022-08-21T01:09:18;14.90;99.90
8172;DHT22;4127;47.908;10.850;2022-08-21T01:11:46;14.80;99.90
8172;DHT22;4127;47.908;10.850;2022-08-21T01:14:14;14.80;99.90
8172;DHT22;4127;47.908;10.850;2022-08-21T01:16:44;14.80;99.90
8172;DHT22;4127;47.908;10.850;2022-08-21T01:19:12;14.80;99.90
8172;DHT22;4127;47.908;10.850;2022-08-21T01:21:38;14.70;99.90
8172;DHT22;4127;47.908;10.850;2022-08-21T01:24:05;14.70;99.90
8172;DHT22;4127;47.908;10.850;2022-08-21T01:26:34;14.70;99.90
8172;DHT22;4127;47.908;10.850;2022-08-21T01:31:58;14.60;99.90
8172;DHT22;4127;47.908;10.850;2022-08-21T01:34:25;14.60;99.90
8172;DHT22;4127;47.908;10.850;2022-08-21T01:36:52;14.60;99.90
8172;DHT22;4127;47.908;10.850;2022-08-21T01:39:19;14.60;99.90
8172;DHT22;4127;47.908;10.850;2022-08-21T01:41:46;14.50;99.90
8172;DHT22;4127;47.908;10.850;2022-08-21T01:44:13;14.50;99.90
8172;DHT22;4127;47.908;10.850;2022-08-21T01:46:39;14.50;99.90
8172;DHT22;4127;47.908;10.850;2022-08-21T01:49:06;14.50;99.90
8172;DHT22;4127;47.908;10.850;2022-08-21T01:51:33;14.40;99.90
8172;DHT22;4127;47.908;10.850;2022-08-21T01:54:00;14.40;99.90
8172;DHT22;4127;47.908;10.850;2022-08-21T01:56:27;14.40;99.90
8172;DHT22;4127;47.908;10.850;2022-08-21T01:58:54;14.30;99.90
8172;DHT22;4127;47.908;10.850;2022-08-21T02:01:21;14.30;99.90
8172;DHT22;4127;47.908;10.850;2022-08-21T02:03:48;14.30;99.90
8172;DHT22;4127;47.908;10.850;2022-08-21T02:06:15;14.30;99.90
8172;DHT22;4127;47.908;10.850;2022-08-21T02:08:45;14.30;99.90
8172;DHT22;4127;47.908;10.850;2022-08-21T02:11:13;14.30;99.90
8172;DHT22;4127;47.908;10.850;2022-08-21T02:13:39;14.30;99.90
8172;DHT22;4127;47.908;10.850;2022-08-21T02:16:06;14.20;99.90
8172;DHT22;4127;47.908;10.850;2022-08-21T02:18:34;14.20;99.90
8172;DHT22;4127;47.908;10.850;2022-08-21T02:21:02;14.20;99.90
8172;DHT22;4127;47.908;10.850;2022-08-21T02:23:30;14.20;99.90
8172;DHT22;4127;47.908;10.850;2022-08-21T02:25:58;14.20;99.90
8172;DHT22;4127;47.908;10.850;2022-08-21T02:28:25;14.20;99.90
8172;DHT22;4127;47.908;10.850;2022-08-21T02:30:54;14.20;99.90
8172;DHT22;4127;47.908;10.850;2022-08-21T02:33:21;14.10;99.90
8172;DHT22;4127;47.908;10.850;2022-08-21T02:35:49;14.20;99.90
8172;DHT22;4127;47.908;10.850;2022-08-21T02:38:21;14.10;99.90
8172;DHT22;4127;47.908;10.850;2022-08-21T02:40:50;14.10;99.90
8172;DHT22;4127;47.908;10.850;2022-08-21T02:43:19;14.10;99.90
8172;DHT22;4127;47.908;10.850;2022-08-21T02:45:47;14.10;99.90
8172;DHT22;4127;47.908;10.850;2022-08-21T02:48:17;14.10;99.90
8172;DHT22;4127;47.908;10.850;2022-08-21T02:50:48;14.10;99.90
8172;DHT22;4127;47.908;10.850;2022-08-21T02:53:17;14.10;99.90
8172;DHT22;4127;47.908;10.850;2022-08-21T02:55:46;14.00;99.90
8172;DHT22;4127;47.908;10.850;2022-08-21T02:58:16;14.00;99.90
8172;DHT22;4127;47.908;10.850;2022-08-21T03:00:43;14.00;99.90
8172;DHT22;4127;47.908;10.850;2022-08-21T03:03:11;14.00;99.90
8172;DHT22;4127;47.908;10.850;2022-08-21T03:05:38;14.00;99.90
8172;DHT22;4127;47.908;10.850;2022-08-21T03:08:08;14.00;99.90
8172;DHT22;4127;47.908;10.850;2022-08-21T03:10:43;14.00;99.90
8172;DHT22;4127;47.908;10.850;2022-08-21T03:13:11;14.00;99.90
8172;DHT22;4127;47.908;10.850;2022-08-21T03:15:39;14.00;99.90
8172;DHT22;4127;47.908;10.850;2022-08-21T03:18:07;14.00;99.90
8172;DHT22;4127;47.908;10.850;2022-08-21T03:20:37;14.00;99.90
8172;DHT22;4127;47.908;10.850;2022-08-21T03:23:05;14.00;99.90
8172;DHT22;4127;47.908;10.850;2022-08-21T03:25:41;13.90;99.90
8172;DHT22;4127;47.908;10.850;2022-08-21T03:28:12;13.90;99.90
8172;DHT22;4127;47.908;10.850;2022-08-21T03:30:41;13.90;99.90
8172;DHT22;4127;47.908;10.850;2022-08-21T03:33:08;13.80;99.90
8172;DHT22;4127;47.908;10.850;2022-08-21T03:35:42;13.80;99.90
8172;DHT22;4127;47.908;10.850;2022-08-21T03:38:10;13.80;99.90
8172;DHT22;4127;47.908;10.850;2022-08-21T03:40:37;13.80;99.90
8172;DHT22;4127;47.908;10.850;2022-08-21T03:43:04;13.80;99.90
8172;DHT22;4127;47.908;10.850;2022-08-21T03:45:31;13.80;99.90
8172;DHT22;4127;47.908;10.850;2022-08-21T03:48:01;13.80;99.90
8172;DHT22;4127;47.908;10.850;2022-08-21T03:50:31;13.80;99.90
8172;DHT22;4127;47.908;10.850;2022-08-21T03:53:01;13.80;99.90
8172;DHT22;4127;47.908;10.850;2022-08-21T03:55:28;13.80;99.90
8172;DHT22;4127;47.908;10.850;2022-08-21T03:57:55;13.80;99.90
8172;DHT22;4127;47.908;10.850;2022-08-21T04:00:22;13.80;99.90
8172;DHT22;4127;47.908;10.850;2022-08-21T04:02:50;13.80;99.90
8172;DHT22;4127;47.908;10.850;2022-08-21T04:05:17;13.70;99.90
8172;DHT22;4127;47.908;10.850;2022-08-21T04:07:55;13.70;99.90
8172;DHT22;4127;47.908;10.850;2022-08-21T04:10:23;13.70;99.90
8172;DHT22;4127;47.908;10.850;2022-08-21T04:12:52;13.60;99.90
8172;DHT22;4127;47.908;10.850;2022-08-21T04:15:19;13.70;99.90
8172;DHT22;4127;47.908;10.850;2022-08-21T04:17:46;13.70;99.90
8172;DHT22;4127;47.908;10.850;2022-08-21T04:20:14;13.70;99.90
8172;DHT22;4127;47.908;10.850;2022-08-21T04:22:40;13.60;99.90
8172;DHT22;4127;47.908;10.850;2022-08-21T04:25:07;13.60;99.90
8172;DHT22;4127;47.908;10.850;2022-08-21T04:27:34;13.60;99.90
8172;DHT22;4127;47.908;10.850;2022-08-21T04:30:02;13.60;99.90
8172;DHT22;4127;47.908;10.850;2022-08-21T04:32:29;13.50;99.90
8172;DHT22;4127;47.908;10.850;2022-08-21T04:35:06;13.60;99.90
8172;DHT22;4127;47.908;10.850;2022-08-21T04:37:34;13.50;99.90
8172;DHT22;4127;47.908;10.850;2022-08-21T04:40:08;13.50;99.90
8172;DHT22;4127;47.908;10.850;2022-08-21T04:42:45;13.50;99.90
8172;DHT22;4127;47.908;10.850;2022-08-21T04:47:48;13.50;99.90
8172;DHT22;4127;47.908;10.850;2022-08-21T04:50:20;13.60;99.90
8172;DHT22;4127;47.908;10.850;2022-08-21T04:52:48;13.60;99.90
8172;DHT22;4127;47.908;10.850;2022-08-21T04:55:16;13.60;99.90
8172;DHT22;4127;47.908;10.850;2022-08-21T04:57:44;13.60;99.90
8172;DHT22;4127;47.908;10.850;2022-08-21T05:00:16;13.60;99.90
8172;DHT22;4127;47.908;10.850;2022-08-21T05:02:46;13.70;99.90
8172;DHT22;4127;47.908;10.850;2022-08-21T05:05:17;13.70;99.90
8172;DHT22;4127;47.908;10.850;2022-08-21T05:07:44;13.70;99.90
8172;DHT22;4127;47.908;10.850;2022-08-21T05:10:13;13.70;99.90
8172;DHT22;4127;47.908;10.850;2022-08-21T05:12:42;13.80;99.90
8172;DHT22;4127;47.908;10.850;2022-08-21T05:15:10;13.80;99.90
8172;DHT22;4127;47.908;10.850;2022-08-21T05:17:42;13.90;99.90
8172;DHT22;4127;47.908;10.850;2022-08-21T05:20:19;13.90;99.90
8172;DHT22;4127;47.908;10.850;2022-08-21T05:22:46;14.00;99.90
8172;DHT22;4127;47.908;10.850;2022-08-21T05:25:13;14.10;99.90
8172;DHT22;4127;47.908;10.850;2022-08-21T05:27:42;14.10;99.90
8172;DHT22;4127;47.908;10.850;2022-08-21T05:30:10;14.10;99.90
8172;DHT22;4127;47.908;10.850;2022-08-21T05:32:36;14.10;99.90
8172;DHT22;4127;47.908;10.850;2022-08-21T05:35:05;14.20;99.90
8172;DHT22;4127;47.908;10.850;2022-08-21T05:37:32;14.30;99.90
8172;DHT22;4127;47.908;10.850;2022-08-21T05:40:00;14.30;99.90
8172;DHT22;4127;47.908;10.850;2022-08-21T05:42:47;14.30;99.90
8172;DHT22;4127;47.908;10.850;2022-08-21T05:45:25;14.40;99.90
8172;DHT22;4127;47.908;10.850;2022-08-21T05:48:12;14.50;99.90
8172;DHT22;4127;47.908;10.850;2022-08-21T05:50:40;14.60;99.90
8172;DHT22;4127;47.908;10.850;2022-08-21T05:53:07;14.70;99.90
8172;DHT22;4127;47.908;10.850;2022-08-21T05:55:37;14.80;99.90
8172;DHT22;4127;47.908;10.850;2022-08-21T05:58:12;14.90;99.90
8172;DHT22;4127;47.908;10.850;2022-08-21T06:00:40;15.00;99.90
8172;DHT22;4127;47.908;10.850;2022-08-21T06:03:15;15.10;99.90
8172;DHT22;4127;47.908;10.850;2022-08-21T06:05:44;15.10;99.90
8172;DHT22;4127;47.908;10.850;2022-08-21T06:08:12;15.20;99.90
8172;DHT22;4127;47.908;10.850;2022-08-21T06:10:39;15.40;99.90
8172;DHT22;4127;47.908;10.850;2022-08-21T06:13:05;15.40;99.90
8172;DHT22;4127;47.908;10.850;2022-08-21T06:15:32;15.60;99.90
8172;DHT22;4127;47.908;10.850;2022-08-21T06:17:59;15.70;99.90
8172;DHT22;4127;47.908;10.850;2022-08-21T06:20:27;15.70;99.90
8172;DHT22;4127;47.908;10.850;2022-08-21T06:22:54;15.80;99.90
8172;DHT22;4127;47.908;10.850;2022-08-21T06:25:21;15.90;99.90
8172;DHT22;4127;47.908;10.850;2022-08-21T06:27:47;16.00;99.90
8172;DHT22;4127;47.908;10.850;2022-08-21T06:30:14;16.20;99.90
8172;DHT22;4127;47.908;10.850;2022-08-21T06:32:41;16.50;99.90
8172;DHT22;4127;47.908;10.850;2022-08-21T06:35:09;16.60;99.90
8172;DHT22;4127;47.908;10.850;2022-08-21T06:37:36;16.50;99.90
8172;DHT22;4127;47.908;10.850;2022-08-21T06:40:04;16.50;99.90
8172;DHT22;4127;47.908;10.850;2022-08-21T06:42:38;16.60;99.90
8172;DHT22;4127;47.908;10.850;2022-08-21T06:45:09;16.60;99.90
8172;DHT22;4127;47.908;10.850;2022-08-21T06:47:36;16.60;99.90
8172;DHT22;4127;47.908;10.850;2022-08-21T06:50:03;16.70;99.90
8172;DHT22;4127;47.908;10.850;2022-08-21T06:52:31;16.80;99.90
8172;DHT22;4127;47.908;10.850;2022-08-21T06:54:58;16.80;99.90
8172;DHT22;4127;47.908;10.850;2022-08-21T06:57:24;16.90;99.90
8172;DHT22;4127;47.908;10.850;2022-08-21T06:59:52;17.00;99.90
8172;DHT22;4127;47.908;10.850;2022-08-21T07:02:18;17.10;99.90
8172;DHT22;4127;47.908;10.850;2022-08-21T07:04:45;17.10;99.90
8172;DHT22;4127;47.908;10.850;2022-08-21T07:07:12;17.20;99.90
8172;DHT22;4127;47.908;10.850;2022-08-21T07:09:39;17.30;99.90
8172;DHT22;4127;47.908;10.850;2022-08-21T07:12:06;17.30;99.90
8172;DHT22;4127;47.908;10.850;2022-08-21T07:14:33;17.40;99.90
8172;DHT22;4127;47.908;10.850;2022-08-21T07:17:00;17.40;99.90
8172;DHT22;4127;47.908;10.850;2022-08-21T07:19:27;17.60;99.90
8172;DHT22;4127;47.908;10.850;2022-08-21T07:21:58;17.60;99.90
8172;DHT22;4127;47.908;10.850;2022-08-21T07:24:26;17.60;99.90
8172;DHT22;4127;47.908;10.850;2022-08-21T07:26:53;17.70;99.90
8172;DHT22;4127;47.908;10.850;2022-08-21T07:29:20;17.80;99.90
8172;DHT22;4127;47.908;10.850;2022-08-21T07:31:46;17.90;99.90
8172;DHT22;4127;47.908;10.850;2022-08-21T07:34:14;18.00;99.90
8172;DHT22;4127;47.908;10.850;2022-08-21T07:36:41;18.10;99.90
8172;DHT22;4127;47.908;10.850;2022-08-21T07:39:09;18.10;99.90
8172;DHT22;4127;47.908;10.850;2022-08-21T07:41:35;18.20;99.90
8172;DHT22;4127;47.908;10.850;2022-08-21T07:44:02;18.30;99.90
8172;DHT22;4127;47.908;10.850;2022-08-21T07:46:32;18.40;99.90
8172;DHT22;4127;47.908;10.850;2022-08-21T07:48:59;18.50;99.90
8172;DHT22;4127;47.908;10.850;2022-08-21T07:51:27;18.60;99.90
8172;DHT22;4127;47.908;10.850;2022-08-21T07:53:56;18.60;99.90
8172;DHT22;4127;47.908;10.850;2022-08-21T07:56:24;18.60;99.90
8172;DHT22;4127;47.908;10.850;2022-08-21T07:58:51;18.80;99.90
8172;DHT22;4127;47.908;10.850;2022-08-21T08:01:18;18.90;99.90
8172;DHT22;4127;47.908;10.850;2022-08-21T08:03:45;19.10;99.90
8172;DHT22;4127;47.908;10.850;2022-08-21T08:06:12;19.20;99.90
8172;DHT22;4127;47.908;10.850;2022-08-21T08:08:39;19.20;99.90
8172;DHT22;4127;47.908;10.850;2022-08-21T08:11:08;19.30;99.90
8172;DHT22;4127;47.908;10.850;2022-08-21T08:13:46;19.30;99.90
8172;DHT22;4127;47.908;10.850;2022-08-21T08:16:13;19.40;99.90
8172;DHT22;4127;47.908;10.850;2022-08-21T08:18:40;19.50;99.90
8172;DHT22;4127;47.908;10.850;2022-08-21T08:21:09;19.60;99.90
8172;DHT22;4127;47.908;10.850;2022-08-21T08:23:36;19.70;99.90
8172;DHT22;4127;47.908;10.850;2022-08-21T08:26:03;19.80;99.90
8172;DHT22;4127;47.908;10.850;2022-08-21T08:28:31;19.90;99.90
8172;DHT22;4127;47.908;10.850;2022-08-21T08:31:00;20.00;99.90
8172;DHT22;4127;47.908;10.850;2022-08-21T08:33:27;20.10;99.90
8172;DHT22;4127;47.908;10.850;2022-08-21T08:35:54;20.20;98.50
8172;DHT22;4127;47.908;10.850;2022-08-21T08:38:22;20.20;98.00
8172;DHT22;4127;47.908;10.850;2022-08-21T08:43:42;20.30;97.20
8172;DHT22;4127;47.908;10.850;2022-08-21T08:46:14;20.40;96.80
8172;DHT22;4127;47.908;10.850;2022-08-21T08:48:53;20.60;97.60
8172;DHT22;4127;47.908;10.850;2022-08-21T08:54:17;20.70;97.90
8172;DHT22;4127;47.908;10.850;2022-08-21T08:56:46;20.90;95.40
8172;DHT22;4127;47.908;10.850;2022-08-21T08:59:24;21.00;95.90
8172;DHT22;4127;47.908;10.850;2022-08-21T09:01:54;21.00;97.60
8172;DHT22;4127;47.908;10.850;2022-08-21T09:04:24;21.10;94.30
8172;DHT22;4127;47.908;10.850;2022-08-21T09:09:55;21.20;92.10
8172;DHT22;4127;47.908;10.850;2022-08-21T09:20:56;21.20;93.90
8172;DHT22;4127;47.908;10.850;2022-08-21T09:26:20;21.10;93.40
8172;DHT22;4127;47.908;10.850;2022-08-21T09:28:54;21.40;93.10
8172;DHT22;4127;47.908;10.850;2022-08-21T09:34:03;22.00;93.10
8172;DHT22;4127;47.908;10.850;2022-08-21T09:36:45;21.70;93.50
8172;DHT22;4127;47.908;10.850;2022-08-21T09:39:28;21.40;92.60
8172;DHT22;4127;47.908;10.850;2022-08-21T09:41:57;21.70;93.10
8172;DHT22;4127;47.908;10.850;2022-08-21T09:44:27;21.90;93.50
8172;DHT22;4127;47.908;10.850;2022-08-21T09:46:54;21.70;93.50
8172;DHT22;4127;47.908;10.850;2022-08-21T09:49:29;22.10;92.70
8172;DHT22;4127;47.908;10.850;2022-08-21T09:51:57;22.50;92.30
8172;DHT22;4127;47.908;10.850;2022-08-21T09:54:33;22.60;91.90
8172;DHT22;4127;47.908;10.850;2022-08-21T09:59:55;21.20;92.30
8172;DHT22;4127;47.908;10.850;2022-08-21T10:02:29;21.40;93.30
8172;DHT22;4127;47.908;10.850;2022-08-21T10:05:16;21.50;92.70
8172;DHT22;4127;47.908;10.850;2022-08-21T10:07:43;21.50;92.10
8172;DHT22;4127;47.908;10.850;2022-08-21T10:10:19;22.00;94.10
8172;DHT22;4127;47.908;10.850;2022-08-21T10:13:12;22.20;93.60
8172;DHT22;4127;47.908;10.850;2022-08-21T10:24:27;21.70;92.90
8172;DHT22;4127;47.908;10.850;2022-08-21T10:29:56;23.10;88.20
8172;DHT22;4127;47.908;10.850;2022-08-21T10:35:14;23.90;89.00
8172;DHT22;4127;47.908;10.850;2022-08-21T10:38:12;24.30;89.20
8172;DHT22;4127;47.908;10.850;2022-08-21T10:44:02;24.20;86.10
8172;DHT22;4127;47.908;10.850;2022-08-21T10:57:37;23.40;90.60
8172;DHT22;4127;47.908;10.850;2022-08-21T11:00:14;23.00;86.80
8172;DHT22;4127;47.908;10.850;2022-08-21T11:03:07;22.80;91.70
8172;DHT22;4127;47.908;10.850;2022-08-21T11:08:37;23.60;90.60
8172;DHT22;4127;47.908;10.850;2022-08-21T11:13:51;23.50;90.70
8172;DHT22;4127;47.908;10.850;2022-08-21T11:16:37;23.40;91.40
8172;DHT22;4127;47.908;10.850;2022-08-21T11:19:36;23.70;90.50
8172;DHT22;4127;47.908;10.850;2022-08-21T11:22:18;23.30;89.00
8172;DHT22;4127;47.908;10.850;2022-08-21T11:30:16;23.60;88.60
8172;DHT22;4127;47.908;10.850;2022-08-21T11:33:04;23.50;87.40
8172;DHT22;4127;47.908;10.850;2022-08-21T11:35:53;23.70;85.70
8172;DHT22;4127;47.908;10.850;2022-08-21T11:38:41;24.00;81.90
8172;DHT22;4127;47.908;10.850;2022-08-21T11:45:08;23.50;85.10
8172;DHT22;4127;47.908;10.850;2022-08-21T11:50:27;23.50;84.10
8172;DHT22;4127;47.908;10.850;2022-08-21T11:56:20;23.90;85.10
8172;DHT22;4127;47.908;10.850;2022-08-21T11:58:52;24.20;84.30
8172;DHT22;4127;47.908;10.850;2022-08-21T12:01:32;24.50;84.60
8172;DHT22;4127;47.908;10.850;2022-08-21T12:04:05;24.00;80.60
8172;DHT22;4127;47.908;10.850;2022-08-21T12:06:40;23.90;82.90
8172;DHT22;4127;47.908;10.850;2022-08-21T12:09:31;24.50;83.50
8172;DHT22;4127;47.908;10.850;2022-08-21T12:12:22;24.90;78.30
8172;DHT22;4127;47.908;10.850;2022-08-21T12:14:51;25.00;82.70
8172;DHT22;4127;47.908;10.850;2022-08-21T12:17:38;25.30;79.80
8172;DHT22;4127;47.908;10.850;2022-08-21T12:23:14;25.70;81.30
8172;DHT22;4127;47.908;10.850;2022-08-21T12:25:59;25.30;82.10
8172;DHT22;4127;47.908;10.850;2022-08-21T12:28:29;24.20;80.70
8172;DHT22;4127;47.908;10.850;2022-08-21T12:30:58;23.60;80.00
8172;DHT22;4127;47.908;10.850;2022-08-21T12:33:38;24.30;83.80
8172;DHT22;4127;47.908;10.850;2022-08-21T12:36:17;24.60;83.40
8172;DHT22;4127;47.908;10.850;2022-08-21T12:38:54;24.00;82.00
8172;DHT22;4127;47.908;10.850;2022-08-21T12:41:32;24.30;77.80
8172;DHT22;4127;47.908;10.850;2022-08-21T12:44:13;24.50;81.10
8172;DHT22;4127;47.908;10.850;2022-08-21T12:46:48;24.30;83.20
8172;DHT22;4127;47.908;10.850;2022-08-21T12:49:35;24.20;87.00
8172;DHT22;4127;47.908;10.850;2022-08-21T12:52:13;24.50;83.90
8172;DHT22;4127;47.908;10.850;2022-08-21T12:54:44;24.50;82.20
8172;DHT22;4127;47.908;10.850;2022-08-21T12:57:25;24.30;83.10
8172;DHT22;4127;47.908;10.850;2022-08-21T12:59:59;24.70;80.90
8172;DHT22;4127;47.908;10.850;2022-08-21T13:02:33;24.40;82.80
8172;DHT22;4127;47.908;10.850;2022-08-21T13:05:05;24.30;85.80
8172;DHT22;4127;47.908;10.850;2022-08-21T13:07:35;24.50;82.70
8172;DHT22;4127;47.908;10.850;2022-08-21T13:10:16;25.00;78.40
8172;DHT22;4127;47.908;10.850;2022-08-21T13:12:44;25.50;80.50
8172;DHT22;4127;47.908;10.850;2022-08-21T13:15:12;25.90;75.30
8172;DHT22;4127;47.908;10.850;2022-08-21T13:17:44;25.90;76.50
8172;DHT22;4127;47.908;10.850;2022-08-21T13:20:23;25.80;84.00
8172;DHT22;4127;47.908;10.850;2022-08-21T13:22:51;24.30;75.20
8172;DHT22;4127;47.908;10.850;2022-08-21T13:25:20;24.60;79.40
8172;DHT22;4127;47.908;10.850;2022-08-21T13:28:11;24.40;77.50
8172;DHT22;4127;47.908;10.850;2022-08-21T13:30:43;24.70;78.70
8172;DHT22;4127;47.908;10.850;2022-08-21T13:33:14;25.30;78.80
8172;DHT22;4127;47.908;10.850;2022-08-21T13:35:52;25.50;75.20
8172;DHT22;4127;47.908;10.850;2022-08-21T13:38:30;25.30;76.10
8172;DHT22;4127;47.908;10.850;2022-08-21T13:41:02;25.30;74.00
8172;DHT22;4127;47.908;10.850;2022-08-21T13:43:33;24.50;76.30
8172;DHT22;4127;47.908;10.850;2022-08-21T13:46:01;24.30;76.00
8172;DHT22;4127;47.908;10.850;2022-08-21T13:48:30;24.30;75.20
8172;DHT22;4127;47.908;10.850;2022-08-21T13:51:00;24.40;80.20
8172;DHT22;4127;47.908;10.850;2022-08-21T13:53:28;24.40;77.00
8172;DHT22;4127;47.908;10.850;2022-08-21T13:55:56;24.00;73.80
8172;DHT22;4127;47.908;10.850;2022-08-21T13:58:44;23.80;79.90
8172;DHT22;4127;47.908;10.850;2022-08-21T14:01:28;23.80;73.60
8172;DHT22;4127;47.908;10.850;2022-08-21T14:04:07;24.20;75.10
8172;DHT22;4127;47.908;10.850;2022-08-21T14:06:36;24.30;75.00
8172;DHT22;4127;47.908;10.850;2022-08-21T14:09:11;24.80;72.60
8172;DHT22;4127;47.908;10.850;2022-08-21T14:11:38;24.60;73.20
8172;DHT22;4127;47.908;10.850;2022-08-21T14:14:24;24.30;76.10
8172;DHT22;4127;47.908;10.850;2022-08-21T14:17:06;24.30;74.20
8172;DHT22;4127;47.908;10.850;2022-08-21T14:19:51;24.40;77.50
8172;DHT22;4127;47.908;10.850;2022-08-21T14:22:40;24.10;76.20
8172;DHT22;4127;47.908;10.850;2022-08-21T14:27:43;23.40;79.00
8172;DHT22;4127;47.908;10.850;2022-08-21T14:30:30;23.70;80.50
8172;DHT22;4127;47.908;10.850;2022-08-21T14:32:58;24.00;79.40
8172;DHT22;4127;47.908;10.850;2022-08-21T14:35:26;24.40;79.10
8172;DHT22;4127;47.908;10.850;2022-08-21T14:37:53;23.90;76.80
8172;DHT22;4127;47.908;10.850;2022-08-21T14:40:22;24.00;79.00
8172;DHT22;4127;47.908;10.850;2022-08-21T14:42:50;24.10;75.80
8172;DHT22;4127;47.908;10.850;2022-08-21T14:45:26;24.20;76.50
8172;DHT22;4127;47.908;10.850;2022-08-21T14:47:56;24.20;75.20
8172;DHT22;4127;47.908;10.850;2022-08-21T14:50:23;24.10;75.80
8172;DHT22;4127;47.908;10.850;2022-08-21T14:52:53;24.50;72.80
8172;DHT22;4127;47.908;10.850;2022-08-21T14:55:20;24.40;77.00
8172;DHT22;4127;47.908;10.850;2022-08-21T14:57:49;23.90;77.50
8172;DHT22;4127;47.908;10.850;2022-08-21T15:00:19;23.70;80.80
8172;DHT22;4127;47.908;10.850;2022-08-21T15:02:52;23.70;80.90
8172;DHT22;4127;47.908;10.850;2022-08-21T15:05:19;23.90;80.30
8172;DHT22;4127;47.908;10.850;2022-08-21T15:07:57;23.60;76.00
8172;DHT22;4127;47.908;10.850;2022-08-21T15:10:24;23.30;78.30
8172;DHT22;4127;47.908;10.850;2022-08-21T15:12:50;23.00;79.80
8172;DHT22;4127;47.908;10.850;2022-08-21T15:15:17;23.00;81.40
8172;DHT22;4127;47.908;10.850;2022-08-21T15:17:44;23.10;81.10
8172;DHT22;4127;47.908;10.850;2022-08-21T15:20:14;23.00;78.80
8172;DHT22;4127;47.908;10.850;2022-08-21T15:22:41;23.00;81.20
8172;DHT22;4127;47.908;10.850;2022-08-21T15:25:16;23.00;84.20
8172;DHT22;4127;47.908;10.850;2022-08-21T15:27:42;23.00;82.00
8172;DHT22;4127;47.908;10.850;2022-08-21T15:30:10;22.90;81.70
8172;DHT22;4127;47.908;10.850;2022-08-21T15:32:36;23.00;82.70
8172;DHT22;4127;47.908;10.850;2022-08-21T15:35:05;23.00;81.00
8172;DHT22;4127;47.908;10.850;2022-08-21T15:37:31;22.80;80.10
8172;DHT22;4127;47.908;10.850;2022-08-21T15:39:59;22.80;80.60
8172;DHT22;4127;47.908;10.850;2022-08-21T15:42:26;22.70;78.80
8172;DHT22;4127;47.908;10.850;2022-08-21T15:44:55;22.70;80.60
8172;DHT22;4127;47.908;10.850;2022-08-21T15:47:28;22.70;83.60
8172;DHT22;4127;47.908;10.850;2022-08-21T15:49:55;22.70;79.80
8172;DHT22;4127;47.908;10.850;2022-08-21T15:52:22;23.10;78.30
8172;DHT22;4127;47.908;10.850;2022-08-21T15:54:50;23.40;80.20
8172;DHT22;4127;47.908;10.850;2022-08-21T15:57:19;23.20;81.60
8172;DHT22;4127;47.908;10.850;2022-08-21T15:59:56;22.70;81.20
8172;DHT22;4127;47.908;10.850;2022-08-21T16:02:30;22.50;80.90
8172;DHT22;4127;47.908;10.850;2022-08-21T16:04:57;22.70;77.60
8172;DHT22;4127;47.908;10.850;2022-08-21T16:07:25;22.90;77.00
8172;DHT22;4127;47.908;10.850;2022-08-21T16:09:52;22.80;76.80
8172;DHT22;4127;47.908;10.850;2022-08-21T16:12:31;22.90;78.00
8172;DHT22;4127;47.908;10.850;2022-08-21T16:14:59;22.80;78.20
8172;DHT22;4127;47.908;10.850;2022-08-21T16:17:33;22.70;77.90
8172;DHT22;4127;47.908;10.850;2022-08-21T16:20:04;22.60;78.20
8172;DHT22;4127;47.908;10.850;2022-08-21T16:22:32;22.40;77.20
8172;DHT22;4127;47.908;10.850;2022-08-21T16:25:11;22.40;77.40
8172;DHT22;4127;47.908;10.850;2022-08-21T16:27:40;22.40;78.20
8172;DHT22;4127;47.908;10.850;2022-08-21T16:30:09;22.60;77.30
8172;DHT22;4127;47.908;10.850;2022-08-21T16:32:37;22.60;76.20
8172;DHT22;4127;47.908;10.850;2022-08-21T16:35:04;22.60;78.50
8172;DHT22;4127;47.908;10.850;2022-08-21T16:37:31;22.50;77.60
8172;DHT22;4127;47.908;10.850;2022-08-21T16:39:58;22.50;77.80
8172;DHT22;4127;47.908;10.850;2022-08-21T16:42:25;22.30;77.10
8172;DHT22;4127;47.908;10.850;2022-08-21T16:44:55;22.30;78.10
8172;DHT22;4127;47.908;10.850;2022-08-21T16:47:22;22.20;77.50
8172;DHT22;4127;47.908;10.850;2022-08-21T16:49:53;22.20;77.00
8172;DHT22;4127;47.908;10.850;2022-08-21T16:52:20;22.30;76.70
8172;DHT22;4127;47.908;10.850;2022-08-21T16:54:47;22.40;76.10
8172;DHT22;4127;47.908;10.850;2022-08-21T16:57:14;22.40;76.80
8172;DHT22;4127;47.908;10.850;2022-08-21T16:59:41;22.20;77.40
8172;DHT22;4127;47.908;10.850;2022-08-21T17:02:24;22.10;77.60
8172;DHT22;4127;47.908;10.850;2022-08-21T17:04:53;22.00;77.60
8172;DHT22;4127;47.908;10.850;2022-08-21T17:07:20;21.90;77.80
8172;DHT22;4127;47.908;10.850;2022-08-21T17:09:47;21.90;78.40
8172;DHT22;4127;47.908;10.850;2022-08-21T17:12:15;21.70;77.10
8172;DHT22;4127;47.908;10.850;2022-08-21T17:14:42;21.70;77.30
8172;DHT22;4127;47.908;10.850;2022-08-21T17:17:10;21.70;78.20
8172;DHT22;4127;47.908;10.850;2022-08-21T17:19:37;21.60;78.20
8172;DHT22;4127;47.908;10.850;2022-08-21T17:22:04;21.60;78.30
8172;DHT22;4127;47.908;10.850;2022-08-21T17:24:33;21.60;78.40
8172;DHT22;4127;47.908;10.850;2022-08-21T17:27:01;21.60;79.30
8172;DHT22;4127;47.908;10.850;2022-08-21T17:29:35;21.60;80.10
8172;DHT22;4127;47.908;10.850;2022-08-21T17:32:07;21.60;81.20
8172;DHT22;4127;47.908;10.850;2022-08-21T17:34:35;21.60;81.90